Grande Italia — IBTF — position and weather

sailwx.info

Track history (hours):
 
Tides and Currents Weather Stations Pressure Air Temp Water Temp Dewpoint Dewpoint Depression Visibility Wind Speed Wind Dir Waves Ship Positions

Grande Italia

Last reported at 2014-Oct-19 07:19 UTC. Time now 2014-Oct-20 08:09 UTC.
Position N 37°47' E 016°02'.

Length 177 m; draft 8.2 m.

Type: Cargo ship. MMSI: 247039300.

Date/timePositionNaut miles runAvg speedWind from/ knotsBaromVisibWave heightAir tempDewpointWater temp
2014-Oct-19 07:19N 37°47' E 016°02'1314.6
2014-Oct-19 06:23N 37°51' E 015°46'173 8.6
2014-Oct-18 10:18N 40°34' E 014°31'23911.5
2014-Oct-17 13:27N 43°05' E 010°23'1415.4
2014-Oct-17 12:33N 43°18' E 010°16'1413.5
2014-Oct-17 11:33N 43°31' E 010°13'6 5.5
2014-Oct-17 10:32N 43°35' E 010°19'0 0.0
2014-Oct-17 09:32N 43°35' E 010°19'0 0.0
2014-Oct-17 08:32N 43°35' E 010°19'0 0.0
2014-Oct-17 07:32N 43°35' E 010°19'0 0.0
2014-Oct-17 06:32N 43°35' E 010°19'0 0.0
2014-Oct-17 05:32N 43°35' E 010°19'0 0.0
2014-Oct-17 04:32N 43°35' E 010°19'0 0.0
2014-Oct-17 03:32N 43°35' E 010°19'0 0.0
2014-Oct-17 02:32N 43°35' E 010°19'0 0.2
2014-Oct-17 01:33N 43°35' E 010°19'7 6.5
2014-Oct-17 00:33N 43°29' E 010°13'1514.8
2014-Oct-16 23:33N 43°19' E 009°59'1515.0
2014-Oct-16 22:33N 43°15' E 009°39'1515.5
2014-Oct-16 21:33N 43°13' E 009°18'1615.7
2014-Oct-16 20:33N 43°11' E 008°57'7715.5
2014-Oct-16 15:33N 43°00' E 007°12'1515.2
2014-Oct-16 14:33N 42°59' E 006°51'1514.7
2014-Oct-16 13:32N 42°56' E 006°31'1914.2
2014-Oct-16 12:13N 42°52' E 006°06'1114.4
2014-Oct-16 11:29N 42°47' E 005°53'1314.6
2014-Oct-16 10:33N 42°41' E 005°37'1515.1
2014-Oct-16 09:33N 42°34' E 005°18'1515.0
2014-Oct-16 08:33N 42°28' E 005°00'2015.4
2014-Oct-16 07:16N 42°19' E 004°36'1315.4
2014-Oct-16 06:25N 42°13' E 004°20'1415.4
2014-Oct-16 05:31N 42°07' E 004°03'4614.4
2014-Oct-16 02:20N 41°45' E 003°09'1215.1
2014-Oct-16 01:33N 41°37' E 002°57'1515.3
2014-Oct-16 00:33N 41°27' E 002°42'1515.1
2014-Oct-15 23:33N 41°17' E 002°27'1515.1
2014-Oct-15 22:33N 41°07' E 002°12'1515.1
2014-Oct-15 21:33N 40°57' E 001°57'1515.3
2014-Oct-15 20:33N 40°47' E 001°42'1515.1
2014-Oct-15 19:34N 40°37' E 001°27'1515.2
2014-Oct-15 18:34N 40°28' E 001°11'1615.4
2014-Oct-15 17:33N 40°17' E 000°56'1515.4
2014-Oct-15 16:33N 40°07' E 000°41'1515.2
2014-Oct-15 15:33N 39°56' E 000°27'1515.0
2014-Oct-15 14:34N 39°45' E 000°13'1515.3
2014-Oct-15 13:33N 39°35' W 000°01'1515.3
2014-Oct-15 12:33N 39°25' W 000°17'2 1.7
2014-Oct-15 11:32N 39°26' W 000°18'0 0.0
2014-Oct-15 10:29N 39°26' W 000°18'0 0.0
2014-Oct-15 09:32N 39°26' W 000°18'0 0.0
2014-Oct-15 08:32N 39°26' W 000°18'0 0.0
2014-Oct-15 07:32N 39°26' W 000°18'0 0.0
2014-Oct-15 06:32N 39°26' W 000°18'0 0.0
2014-Oct-15 05:32N 39°26' W 000°18'0 0.0
2014-Oct-15 04:32N 39°26' W 000°18'0 0.0
2014-Oct-15 03:32N 39°26' W 000°18'0 0.0
2014-Oct-15 02:32N 39°26' W 000°18'0 0.0
2014-Oct-15 01:32N 39°26' W 000°18'2 2.5
2014-Oct-15 00:34N 39°25' W 000°16'8710.8
2014-Oct-14 16:33N 37°58' W 000°09'1414.2
2014-Oct-14 15:33N 37°47' W 000°20'1414.0
2014-Oct-14 14:33N 37°35' W 000°29'1414.0
2014-Oct-14 13:33N 37°25' W 000°42'1414.1
2014-Oct-14 12:33N 37°16' W 000°55'22214.8
2014-Oct-13 21:33N 35°59' W 005°15'22013.5
2014-Oct-13 05:21N 37°26' W 009°26'1113.7
2014-Oct-13 04:33N 37°36' W 009°22'1313.3
2014-Oct-13 03:33N 37°48' W 009°16'1414.3
2014-Oct-13 02:33N 38°02' W 009°10'1413.9
2014-Oct-13 01:33N 38°15' W 009°04'1413.6
2014-Oct-13 00:33N 38°28' W 008°58'5 5.2
2014-Oct-12 23:33N 38°31' W 008°52'0 0.0
2014-Oct-12 22:33N 38°31' W 008°52'0 0.0
2014-Oct-12 21:33N 38°31' W 008°52'0 0.0
2014-Oct-12 20:33N 38°31' W 008°52'0 0.0
2014-Oct-12 19:33N 38°31' W 008°52'0 0.0
2014-Oct-12 18:33N 38°31' W 008°52'0 0.0
2014-Oct-12 17:33N 38°31' W 008°52'0 0.0
2014-Oct-12 16:33N 38°31' W 008°52'0 0.0
2014-Oct-12 15:33N 38°31' W 008°52'6 5.6
2014-Oct-12 14:33N 38°27' W 008°58'7 6.6
2014-Oct-12 13:33N 38°23' W 009°05'1313.4
2014-Oct-12 12:33N 38°18' W 009°20'74916.3
2014-Oct-10 14:32N 50°31' W 005°42'1616.4
2014-Oct-10 13:33N 50°41' W 005°22'9018.1
2014-Oct-10 08:33N 51°21' W 003°14'1412.9
2014-Oct-10 07:27N 51°28' W 002°53'7 7.3
2014-Oct-10 06:33N 51°30' W 002°43'0 0.4
2014-Oct-10 05:31N 51°30' W 002°43'0 0.0
2014-Oct-10 04:31N 51°30' W 002°43'0 0.0
2014-Oct-10 03:31N 51°30' W 002°43'0 0.0
2014-Oct-10 02:31N 51°30' W 002°43'0 0.0
2014-Oct-10 01:31N 51°30' W 002°43'0 0.0
2014-Oct-10 00:31N 51°30' W 002°43'0 0.0
2014-Oct-09 23:31N 51°30' W 002°43'0 0.0
2014-Oct-09 22:31N 51°30' W 002°43'0 0.0
2014-Oct-09 21:31N 51°30' W 002°43'0 0.0
2014-Oct-09 20:31N 51°30' W 002°43'0 0.0
2014-Oct-09 19:31N 51°30' W 002°43'0 0.0
2014-Oct-09 18:31N 51°30' W 002°43'0 0.4
2014-Oct-09 17:33N 51°30' W 002°43'1 1.5
2014-Oct-09 16:34N 51°30' W 002°46'1818.1
2014-Oct-09 15:33N 51°21' W 003°11'9 8.8
2014-Oct-09 14:33N 51°21' W 003°26'  
Track history (hours):
 
Tides and Currents Weather Stations Pressure Air Temp Water Temp Dewpoint Dewpoint Depression Visibility Wind Speed Wind Dir Waves Ship Positions

Grande Italia

Last reported at 2014-Oct-19 07:19 UTC. Time now 2014-Oct-20 08:09 UTC.
Position N 37°47' E 016°02'.

Length 177 m; draft 8.2 m.

Type: Cargo ship. MMSI: 247039300.

Date/timePositionNaut miles runAvg speedWind from/ knotsBaromVisibWave heightAir tempDewpointWater temp
2014-Oct-19 07:19N 37°47' E 016°02'1314.6
2014-Oct-19 06:23N 37°51' E 015°46'173 8.6
2014-Oct-18 10:18N 40°34' E 014°31'23911.5
2014-Oct-17 13:27N 43°05' E 010°23'1415.4
2014-Oct-17 12:33N 43°18' E 010°16'1413.5
2014-Oct-17 11:33N 43°31' E 010°13'6 5.5
2014-Oct-17 10:32N 43°35' E 010°19'0 0.0
2014-Oct-17 09:32N 43°35' E 010°19'0 0.0
2014-Oct-17 08:32N 43°35' E 010°19'0 0.0
2014-Oct-17 07:32N 43°35' E 010°19'0 0.0
2014-Oct-17 06:32N 43°35' E 010°19'0 0.0
2014-Oct-17 05:32N 43°35' E 010°19'0 0.0
2014-Oct-17 04:32N 43°35' E 010°19'0 0.0
2014-Oct-17 03:32N 43°35' E 010°19'0 0.0
2014-Oct-17 02:32N 43°35' E 010°19'0 0.2
2014-Oct-17 01:33N 43°35' E 010°19'7 6.5
2014-Oct-17 00:33N 43°29' E 010°13'1514.8
2014-Oct-16 23:33N 43°19' E 009°59'1515.0
2014-Oct-16 22:33N 43°15' E 009°39'1515.5
2014-Oct-16 21:33N 43°13' E 009°18'1615.7
2014-Oct-16 20:33N 43°11' E 008°57'7715.5
2014-Oct-16 15:33N 43°00' E 007°12'1515.2
2014-Oct-16 14:33N 42°59' E 006°51'1514.7
2014-Oct-16 13:32N 42°56' E 006°31'1914.2
2014-Oct-16 12:13N 42°52' E 006°06'1114.4
2014-Oct-16 11:29N 42°47' E 005°53'1314.6
2014-Oct-16 10:33N 42°41' E 005°37'1515.1
2014-Oct-16 09:33N 42°34' E 005°18'1515.0
2014-Oct-16 08:33N 42°28' E 005°00'2015.4
2014-Oct-16 07:16N 42°19' E 004°36'1315.4
2014-Oct-16 06:25N 42°13' E 004°20'1415.4
2014-Oct-16 05:31N 42°07' E 004°03'4614.4
2014-Oct-16 02:20N 41°45' E 003°09'1215.1
2014-Oct-16 01:33N 41°37' E 002°57'1515.3
2014-Oct-16 00:33N 41°27' E 002°42'1515.1
2014-Oct-15 23:33N 41°17' E 002°27'1515.1
2014-Oct-15 22:33N 41°07' E 002°12'1515.1
2014-Oct-15 21:33N 40°57' E 001°57'1515.3
2014-Oct-15 20:33N 40°47' E 001°42'1515.1
2014-Oct-15 19:34N 40°37' E 001°27'1515.2
2014-Oct-15 18:34N 40°28' E 001°11'1615.4
2014-Oct-15 17:33N 40°17' E 000°56'1515.4
2014-Oct-15 16:33N 40°07' E 000°41'1515.2
2014-Oct-15 15:33N 39°56' E 000°27'1515.0
2014-Oct-15 14:34N 39°45' E 000°13'1515.3
2014-Oct-15 13:33N 39°35' W 000°01'1515.3
2014-Oct-15 12:33N 39°25' W 000°17'2 1.7
2014-Oct-15 11:32N 39°26' W 000°18'0 0.0
2014-Oct-15 10:29N 39°26' W 000°18'0 0.0
2014-Oct-15 09:32N 39°26' W 000°18'0 0.0
2014-Oct-15 08:32N 39°26' W 000°18'0 0.0
2014-Oct-15 07:32N 39°26' W 000°18'0 0.0
2014-Oct-15 06:32N 39°26' W 000°18'0 0.0
2014-Oct-15 05:32N 39°26' W 000°18'0 0.0
2014-Oct-15 04:32N 39°26' W 000°18'0 0.0
2014-Oct-15 03:32N 39°26' W 000°18'0 0.0
2014-Oct-15 02:32N 39°26' W 000°18'0 0.0
2014-Oct-15 01:32N 39°26' W 000°18'2 2.5
2014-Oct-15 00:34N 39°25' W 000°16'8710.8
2014-Oct-14 16:33N 37°58' W 000°09'1414.2
2014-Oct-14 15:33N 37°47' W 000°20'1414.0
2014-Oct-14 14:33N 37°35' W 000°29'1414.0
2014-Oct-14 13:33N 37°25' W 000°42'1414.1
2014-Oct-14 12:33N 37°16' W 000°55'22214.8
2014-Oct-13 21:33N 35°59' W 005°15'22013.5
2014-Oct-13 05:21N 37°26' W 009°26'1113.7
2014-Oct-13 04:33N 37°36' W 009°22'1313.3
2014-Oct-13 03:33N 37°48' W 009°16'1414.3
2014-Oct-13 02:33N 38°02' W 009°10'1413.9
2014-Oct-13 01:33N 38°15' W 009°04'1413.6
2014-Oct-13 00:33N 38°28' W 008°58'5 5.2
2014-Oct-12 23:33N 38°31' W 008°52'0 0.0
2014-Oct-12 22:33N 38°31' W 008°52'0 0.0
2014-Oct-12 21:33N 38°31' W 008°52'0 0.0
2014-Oct-12 20:33N 38°31' W 008°52'0 0.0
2014-Oct-12 19:33N 38°31' W 008°52'0 0.0
2014-Oct-12 18:33N 38°31' W 008°52'0 0.0
2014-Oct-12 17:33N 38°31' W 008°52'0 0.0
2014-Oct-12 16:33N 38°31' W 008°52'0 0.0
2014-Oct-12 15:33N 38°31' W 008°52'6 5.6
2014-Oct-12 14:33N 38°27' W 008°58'7 6.6
2014-Oct-12 13:33N 38°23' W 009°05'1313.4
2014-Oct-12 12:33N 38°18' W 009°20'74916.3
2014-Oct-10 14:32N 50°31' W 005°42'1616.4
2014-Oct-10 13:33N 50°41' W 005°22'9018.1
2014-Oct-10 08:33N 51°21' W 003°14'1412.9
2014-Oct-10 07:27N 51°28' W 002°53'7 7.3
2014-Oct-10 06:33N 51°30' W 002°43'0 0.4
2014-Oct-10 05:31N 51°30' W 002°43'0 0.0
2014-Oct-10 04:31N 51°30' W 002°43'0 0.0
2014-Oct-10 03:31N 51°30' W 002°43'0 0.0
2014-Oct-10 02:31N 51°30' W 002°43'0 0.0
2014-Oct-10 01:31N 51°30' W 002°43'0 0.0
2014-Oct-10 00:31N 51°30' W 002°43'0 0.0
2014-Oct-09 23:31N 51°30' W 002°43'0 0.0
2014-Oct-09 22:31N 51°30' W 002°43'0 0.0
2014-Oct-09 21:31N 51°30' W 002°43'0 0.0
2014-Oct-09 20:31N 51°30' W 002°43'0 0.0
2014-Oct-09 19:31N 51°30' W 002°43'0 0.0
2014-Oct-09 18:31N 51°30' W 002°43'0 0.4
2014-Oct-09 17:33N 51°30' W 002°43'1 1.5
2014-Oct-09 16:34N 51°30' W 002°46'1818.1
2014-Oct-09 15:33N 51°21' W 003°11'9 8.8
2014-Oct-09 14:33N 51°21' W 003°26'  

Dump ship's entire track history